createdAt,value
2024-03-08T00:01:29.483Z,100.00
2024-03-08T00:03:04.376Z,100.00
2024-03-08T00:04:37.666Z,100.00
2024-03-08T00:06:12.892Z,100.00
2024-03-08T00:07:46.232Z,100.00
2024-03-08T00:09:23.335Z,100.00
2024-03-08T00:10:56.386Z,100.00
2024-03-08T00:12:30.866Z,100.00
2024-03-08T00:14:07.728Z,100.00
2024-03-08T00:15:42.504Z,100.00
2024-03-08T00:17:16.976Z,100.00
2024-03-08T00:18:51.587Z,100.00
2024-03-08T00:20:24.673Z,100.00
2024-03-08T00:21:58.737Z,100.00
2024-03-08T00:23:31.606Z,100.00
2024-03-08T00:25:06.846Z,100.00
2024-03-08T00:26:39.945Z,100.00
2024-03-08T00:28:16.208Z,100.00
2024-03-08T00:29:49.435Z,100.00
2024-03-08T00:31:25.261Z,100.00
2024-03-08T00:32:59.229Z,100.00
2024-03-08T00:34:32.846Z,100.00
2024-03-08T00:36:08.557Z,100.00
2024-03-08T00:37:43.385Z,100.00
2024-03-08T00:39:17.818Z,100.00
2024-03-08T00:40:50.717Z,100.00
2024-03-08T00:42:25.620Z,100.00
2024-03-08T00:44:00.268Z,100.00
2024-03-08T00:45:33.508Z,100.00
2024-03-08T00:47:09.381Z,100.00
2024-03-08T00:48:44.610Z,100.00
2024-03-08T00:50:19.584Z,100.00
2024-03-08T00:51:52.629Z,100.00
2024-03-08T00:53:26.752Z,100.00
2024-03-08T00:55:00.798Z,100.00
2024-03-08T00:56:35.646Z,100.00
2024-03-08T00:58:10.412Z,100.00
2024-03-08T00:59:43.516Z,100.00
2024-03-08T01:01:17.957Z,100.00
2024-03-08T01:02:53.325Z,100.00
2024-03-08T01:04:30.076Z,100.00
2024-03-08T01:06:04.491Z,100.00
2024-03-08T01:07:38.708Z,100.00
2024-03-08T01:09:12.024Z,100.00
2024-03-08T01:10:46.568Z,100.00
2024-03-08T01:12:19.791Z,100.00
2024-03-08T01:13:56.069Z,100.00
2024-03-08T01:15:30.547Z,100.00
2024-03-08T01:17:03.459Z,100.00
2024-03-08T01:18:38.848Z,100.00
2024-03-08T01:20:13.654Z,100.00
2024-03-08T01:21:48.143Z,100.00
2024-03-08T01:23:21.096Z,100.00
2024-03-08T01:24:55.285Z,100.00
2024-03-08T01:26:28.253Z,100.00
2024-03-08T01:28:02.626Z,100.00
2024-03-08T01:29:35.562Z,100.00
2024-03-08T01:31:09.755Z,100.00
2024-03-08T01:32:43.732Z,100.00
2024-03-08T01:34:19.612Z,100.00
2024-03-08T01:35:53.753Z,100.00
2024-03-08T01:37:26.652Z,100.00
2024-03-08T01:39:00.518Z,100.00
2024-03-08T01:40:34.867Z,100.00
2024-03-08T01:42:08.133Z,100.00
2024-03-08T01:43:42.070Z,100.00
2024-03-08T01:45:15.013Z,100.00
2024-03-08T01:46:50.245Z,100.00
2024-03-08T01:48:25.088Z,100.00
2024-03-08T01:50:01.012Z,100.00
2024-03-08T01:51:34.190Z,100.00
2024-03-08T01:53:08.935Z,100.00
2024-03-08T01:54:43.151Z,100.00
2024-03-08T01:56:16.224Z,100.00
2024-03-08T01:57:50.547Z,100.00
2024-03-08T01:59:23.897Z,100.00
2024-03-08T02:00:59.321Z,100.00
2024-03-08T02:02:34.889Z,100.00
2024-03-08T02:04:09.293Z,100.00
2024-03-08T02:05:45.114Z,100.00
2024-03-08T02:07:19.039Z,100.00
2024-03-08T02:08:52.591Z,100.00
2024-03-08T02:10:26.492Z,100.00
2024-03-08T02:11:59.835Z,100.00
2024-03-08T02:13:34.017Z,100.00
2024-03-08T02:15:08.019Z,100.00
2024-03-08T02:16:41.996Z,100.00
2024-03-08T02:18:15.859Z,100.00
2024-03-08T02:19:49.830Z,100.00
2024-03-08T02:21:24.107Z,100.00
2024-03-08T02:22:57.951Z,100.00
2024-03-08T02:24:31.982Z,100.00
2024-03-08T02:26:06.715Z,100.00
2024-03-08T02:27:42.323Z,100.00
2024-03-08T02:29:17.134Z,100.00
2024-03-08T02:30:50.985Z,100.00
2024-03-08T02:32:25.330Z,100.00
2024-03-08T02:34:00.744Z,100.00
2024-03-08T02:35:34.040Z,100.00
2024-03-08T02:37:10.135Z,100.00
2024-03-08T02:38:43.034Z,100.00
2024-03-08T02:40:17.733Z,100.00
2024-03-08T02:41:50.718Z,100.00
2024-03-08T02:43:26.249Z,100.00
2024-03-08T02:44:59.626Z,100.00
2024-03-08T02:46:33.638Z,100.00
2024-03-08T02:48:07.785Z,100.00
2024-03-08T02:49:42.202Z,100.00
2024-03-08T02:51:17.387Z,100.00
2024-03-08T02:52:51.844Z,100.00
2024-03-08T02:54:25.985Z,100.00
2024-03-08T02:55:59.612Z,100.00
2024-03-08T02:57:33.600Z,100.00
2024-03-08T02:59:06.696Z,100.00
2024-03-08T03:00:42.101Z,100.00
2024-03-08T03:02:15.583Z,100.00
2024-03-08T03:03:49.501Z,100.00
2024-03-08T03:05:22.558Z,100.00
2024-03-08T03:06:57.097Z,100.00
2024-03-08T03:08:32.128Z,100.00
2024-03-08T03:10:08.213Z,100.00
2024-03-08T03:11:42.098Z,100.00
2024-03-08T03:13:15.463Z,100.00
2024-03-08T03:14:50.118Z,100.00
2024-03-08T03:16:24.027Z,100.00
2024-03-08T03:17:57.982Z,100.00
2024-03-08T03:19:31.320Z,100.00
2024-03-08T03:21:09.226Z,100.00
2024-03-08T03:22:42.613Z,100.00
2024-03-08T03:24:19.124Z,100.00
2024-03-08T03:25:53.349Z,100.00
2024-03-08T03:27:27.600Z,100.00
2024-03-08T03:29:01.836Z,100.00
2024-03-08T03:30:35.907Z,100.00
2024-03-08T03:32:08.954Z,100.00
2024-03-08T03:33:43.401Z,100.00
2024-03-08T03:35:17.028Z,100.00
2024-03-08T03:36:50.955Z,100.00
2024-03-08T03:38:24.950Z,100.00
2024-03-08T03:40:00.940Z,100.00
2024-03-08T03:41:33.929Z,100.00
2024-03-08T03:43:08.301Z,100.00
2024-03-08T03:44:41.339Z,100.00
2024-03-08T03:46:15.687Z,100.00
2024-03-08T03:47:48.665Z,100.00
2024-03-08T03:49:22.778Z,100.00
2024-03-08T03:50:56.920Z,100.00
2024-03-08T03:52:30.138Z,100.00
2024-03-08T03:54:05.031Z,100.00
2024-03-08T03:55:41.664Z,100.00
2024-03-08T03:57:15.077Z,100.00
2024-03-08T03:58:50.475Z,100.00
2024-03-08T04:00:23.536Z,100.00
2024-03-08T04:01:57.674Z,100.00
2024-03-08T04:03:30.600Z,100.00
2024-03-08T04:05:05.449Z,100.00
2024-03-08T04:06:39.389Z,100.00
2024-03-08T04:08:12.736Z,100.00
2024-03-08T04:09:46.628Z,100.00
2024-03-08T04:11:22.516Z,100.00
2024-03-08T04:12:57.955Z,100.00
2024-03-08T04:14:30.957Z,100.00
2024-03-08T04:16:09.020Z,100.00
2024-03-08T04:17:42.508Z,100.00
2024-03-08T04:19:16.579Z,100.00
2024-03-08T04:20:49.667Z,100.00
2024-03-08T04:22:23.710Z,100.00
2024-03-08T04:23:58.119Z,100.00
2024-03-08T04:25:32.052Z,100.00
2024-03-08T04:27:06.606Z,100.00
2024-03-08T04:28:40.897Z,100.00
2024-03-08T04:30:14.706Z,100.00
2024-03-08T04:31:48.690Z,100.00
2024-03-08T04:33:22.821Z,100.00
2024-03-08T04:34:56.947Z,100.00
2024-03-08T04:36:30.232Z,100.00
2024-03-08T04:38:06.478Z,100.00
2024-03-08T04:39:39.744Z,100.00
2024-03-08T04:41:13.890Z,100.00
2024-03-08T04:42:50.240Z,100.00
2024-03-08T04:44:25.512Z,100.00
2024-03-08T04:45:59.476Z,100.00
2024-03-08T04:47:33.552Z,100.00
2024-03-08T04:49:08.632Z,100.00
2024-03-08T04:50:42.498Z,100.00
2024-03-08T04:52:15.793Z,100.00
2024-03-08T04:53:49.832Z,100.00
2024-03-08T04:55:23.393Z,100.00
2024-03-08T04:56:57.393Z,100.00
2024-03-08T04:58:31.698Z,100.00
2024-03-08T05:00:12.092Z,100.00
2024-03-08T05:01:45.497Z,100.00
2024-03-08T05:03:19.463Z,100.00
2024-03-08T05:04:52.576Z,100.00
2024-03-08T05:06:26.417Z,100.00
2024-03-08T05:07:59.807Z,100.00
2024-03-08T05:09:34.974Z,100.00
2024-03-08T05:11:08.595Z,100.00
2024-03-08T05:12:42.594Z,100.00
2024-03-08T05:14:18.466Z,100.00
2024-03-08T05:15:52.496Z,100.00
2024-03-08T05:17:25.339Z,100.00
2024-03-08T05:19:00.527Z,100.00
2024-03-08T05:20:34.035Z,100.00
2024-03-08T05:22:08.000Z,100.00
2024-03-08T05:23:41.068Z,100.00
2024-03-08T05:25:15.334Z,100.00
2024-03-08T05:26:49.313Z,100.00
2024-03-08T05:28:23.354Z,100.00
2024-03-08T05:29:57.930Z,100.00
2024-03-08T05:31:38.484Z,100.00
2024-03-08T05:33:11.938Z,100.00
2024-03-08T05:34:45.845Z,100.00
2024-03-08T05:36:18.859Z,100.00
2024-03-08T05:37:52.886Z,100.00
2024-03-08T05:39:26.487Z,100.00
2024-03-08T05:41:00.585Z,100.00
2024-03-08T05:42:33.898Z,100.00
2024-03-08T05:44:08.169Z,100.00
2024-03-08T05:45:42.837Z,100.00
2024-03-08T05:47:17.117Z,100.00
2024-03-08T05:48:50.389Z,100.00
2024-03-08T05:50:24.552Z,100.00
2024-03-08T05:51:57.989Z,100.00
2024-03-08T05:53:32.782Z,100.00
2024-03-08T05:55:08.535Z,100.00
2024-03-08T05:56:44.701Z,100.00
2024-03-08T05:58:18.568Z,100.00
2024-03-08T05:59:52.957Z,100.00
2024-03-08T06:01:28.568Z,100.00
2024-03-08T06:03:01.649Z,100.00
2024-03-08T06:04:36.024Z,100.00
2024-03-08T06:06:09.195Z,100.00
2024-03-08T06:07:43.519Z,100.00
2024-03-08T06:09:24.151Z,100.00
2024-03-08T06:11:00.838Z,100.00
2024-03-08T06:12:38.203Z,100.00
2024-03-08T06:14:12.325Z,100.00
2024-03-08T06:15:46.594Z,100.00
2024-03-08T06:17:21.385Z,100.00
2024-03-08T06:18:56.492Z,100.00
2024-03-08T06:20:29.726Z,100.00
2024-03-08T06:22:06.751Z,100.00
2024-03-08T06:23:41.586Z,100.00
2024-03-08T06:25:16.038Z,100.00
2024-03-08T06:26:50.067Z,100.00
2024-03-08T06:28:24.113Z,100.00
2024-03-08T06:29:57.535Z,100.00
2024-03-08T06:31:31.611Z,100.00
2024-03-08T06:33:08.318Z,100.00
2024-03-08T06:34:41.306Z,100.00
2024-03-08T06:36:16.363Z,100.00
2024-03-08T06:37:49.655Z,100.00
2024-03-08T06:39:26.292Z,100.00
2024-03-08T06:40:59.718Z,100.00
2024-03-08T06:42:36.588Z,100.00
2024-03-08T06:44:10.306Z,100.00
2024-03-08T06:45:49.908Z,100.00
2024-03-08T06:47:24.022Z,100.00
2024-03-08T06:49:00.161Z,100.00
2024-03-08T06:50:33.314Z,100.00
2024-03-08T06:52:10.234Z,100.00
2024-03-08T06:53:43.524Z,100.00
2024-03-08T06:55:18.822Z,100.00
2024-03-08T06:56:52.070Z,100.00
2024-03-08T06:58:26.221Z,100.00
2024-03-08T06:59:59.302Z,100.00
2024-03-08T07:01:36.347Z,100.00
2024-03-08T07:03:13.662Z,100.00
2024-03-08T07:04:48.276Z,100.00
2024-03-08T07:06:22.431Z,100.00
2024-03-08T07:07:56.369Z,100.00
2024-03-08T07:09:30.429Z,100.00
2024-03-08T07:11:05.198Z,100.00
2024-03-08T07:12:38.326Z,100.00
2024-03-08T07:14:12.743Z,100.00
2024-03-08T07:15:46.695Z,100.00
2024-03-08T07:17:20.702Z,100.00
2024-03-08T07:18:53.965Z,100.00
2024-03-08T07:20:30.457Z,100.00
2024-03-08T07:22:04.848Z,100.00
2024-03-08T07:23:55.820Z,100.00
2024-03-08T07:25:31.251Z,100.00
2024-03-08T07:27:06.550Z,100.00
2024-03-08T07:28:40.917Z,100.00
2024-03-08T07:30:14.438Z,98.68
2024-03-08T07:31:57.875Z,92.15
2024-03-08T07:33:32.115Z,90.59
2024-03-08T07:35:07.064Z,89.96
2024-03-08T07:36:41.704Z,82.36
2024-03-08T07:38:16.173Z,81.00
2024-03-08T07:39:49.537Z,82.28
2024-03-08T07:41:24.412Z,79.34
2024-03-08T07:42:57.880Z,80.40
2024-03-08T07:44:33.568Z,77.73
2024-03-08T07:46:07.030Z,69.56
2024-03-08T07:47:41.323Z,73.18
2024-03-08T07:49:15.212Z,72.57
2024-03-08T07:50:51.504Z,74.42
2024-03-08T07:52:27.167Z,70.08
2024-03-08T07:54:01.391Z,69.85
2024-03-08T07:55:34.680Z,65.56
2024-03-08T07:57:10.235Z,63.37
2024-03-08T07:58:44.059Z,60.47
2024-03-08T08:00:19.858Z,65.01
2024-03-08T08:01:55.436Z,68.76
2024-03-08T08:03:29.904Z,68.29
2024-03-08T08:05:03.086Z,70.60
2024-03-08T08:06:39.272Z,75.35
2024-03-08T08:08:13.673Z,71.99
2024-03-08T08:09:48.197Z,70.52
2024-03-08T08:11:21.511Z,70.44
2024-03-08T08:12:55.480Z,71.27
2024-03-08T08:14:28.428Z,67.69
2024-03-08T08:16:02.657Z,69.67
2024-03-08T08:17:36.017Z,71.28
2024-03-08T08:19:15.072Z,71.42
2024-03-08T08:20:48.503Z,69.21
2024-03-08T08:22:23.183Z,64.58
2024-03-08T08:23:57.699Z,62.49
2024-03-08T08:25:32.481Z,60.73
2024-03-08T08:27:05.673Z,58.47
2024-03-08T08:28:42.589Z,55.32
2024-03-08T08:30:16.132Z,53.53
2024-03-08T08:31:51.100Z,55.82
2024-03-08T08:33:26.822Z,61.65
2024-03-08T08:35:01.396Z,59.21
2024-03-08T08:36:35.632Z,57.99
2024-03-08T08:38:08.704Z,63.97
2024-03-08T08:39:44.224Z,61.58
2024-03-08T08:41:19.412Z,64.42
2024-03-08T08:42:53.940Z,65.37
2024-03-08T08:44:27.301Z,58.81
2024-03-08T08:46:02.335Z,59.47
2024-03-08T08:47:36.308Z,57.59
2024-03-08T08:49:11.812Z,58.02
2024-03-08T08:50:46.192Z,58.68
2024-03-08T08:52:20.891Z,61.90
2024-03-08T08:53:54.775Z,68.78
2024-03-08T08:55:32.748Z,68.41
2024-03-08T08:57:08.913Z,68.27
2024-03-08T08:58:43.630Z,68.72
2024-03-08T09:00:17.967Z,73.18
2024-03-08T09:01:54.978Z,77.01
2024-03-08T09:03:30.872Z,85.31
2024-03-08T09:05:04.509Z,81.99
2024-03-08T09:06:39.320Z,76.26
2024-03-08T09:08:12.401Z,77.51
2024-03-08T09:09:46.695Z,73.49
2024-03-08T09:11:21.451Z,65.15
2024-03-08T09:12:56.405Z,60.61
2024-03-08T09:14:29.363Z,59.59
2024-03-08T09:16:06.242Z,57.70
2024-03-08T09:17:40.975Z,54.78
2024-03-08T09:19:15.740Z,55.18
2024-03-08T09:20:49.979Z,57.79
2024-03-08T09:22:23.618Z,55.40
2024-03-08T09:23:57.601Z,61.20
2024-03-08T09:25:32.512Z,65.79
2024-03-08T09:27:10.850Z,64.73
2024-03-08T09:28:44.684Z,62.30
2024-03-08T09:30:17.725Z,58.69
2024-03-08T09:31:52.889Z,55.77
2024-03-08T09:33:26.039Z,56.17
2024-03-08T09:35:01.986Z,62.34
2024-03-08T09:36:35.084Z,66.62
2024-03-08T09:38:14.597Z,67.30
2024-03-08T09:39:47.828Z,65.43
2024-03-08T09:41:21.885Z,66.57
2024-03-08T09:42:56.779Z,64.19
2024-03-08T09:44:31.416Z,61.61
2024-03-08T09:46:05.605Z,60.67
2024-03-08T09:47:42.808Z,58.36
2024-03-08T09:49:15.814Z,61.02
2024-03-08T09:50:51.108Z,61.70
2024-03-08T09:52:24.218Z,63.51
2024-03-08T09:54:02.835Z,61.98
2024-03-08T09:55:38.598Z,61.08
2024-03-08T09:57:13.565Z,68.63
2024-03-08T09:59:09.183Z,75.95
2024-03-08T10:00:43.562Z,82.10
2024-03-08T10:02:17.983Z,87.31
2024-03-08T10:03:56.160Z,87.35
2024-03-08T10:05:29.511Z,84.21
2024-03-08T10:07:04.179Z,85.43
2024-03-08T10:08:39.245Z,87.93
2024-03-08T10:10:13.448Z,91.47
2024-03-08T10:11:47.976Z,90.89
2024-03-08T10:13:21.231Z,92.64
2024-03-08T10:15:01.446Z,95.22
2024-03-08T10:16:35.272Z,95.34
2024-03-08T10:18:09.970Z,94.20
2024-03-08T10:19:52.021Z,91.94
2024-03-08T10:21:26.435Z,89.56
2024-03-08T10:23:07.496Z,89.55
2024-03-08T10:24:48.045Z,91.04
2024-03-08T10:26:22.917Z,90.56
2024-03-08T10:27:58.188Z,91.12
2024-03-08T10:29:32.376Z,89.26
2024-03-08T10:31:08.151Z,88.52
2024-03-08T10:32:42.436Z,85.52
2024-03-08T10:34:17.677Z,86.27
2024-03-08T10:35:51.343Z,86.14
2024-03-08T10:37:26.084Z,84.93
2024-03-08T10:39:02.652Z,86.38
2024-03-08T10:40:41.310Z,88.99
2024-03-08T10:42:19.538Z,88.02
2024-03-08T10:44:14.091Z,87.47
2024-03-08T10:45:50.228Z,86.17
2024-03-08T10:47:31.849Z,84.47
2024-03-08T10:49:09.300Z,85.45
2024-03-08T10:50:46.449Z,80.77
2024-03-08T10:52:20.725Z,81.59
2024-03-08T10:53:56.622Z,78.89
2024-03-08T10:55:29.881Z,82.42
2024-03-08T10:57:06.634Z,86.43
2024-03-08T10:58:41.364Z,87.98
2024-03-08T11:00:17.604Z,87.39
2024-03-08T11:01:52.200Z,87.23
2024-03-08T11:03:54.989Z,85.65
2024-03-08T11:05:40.879Z,86.53
2024-03-08T11:07:18.981Z,85.12
2024-03-08T11:08:52.109Z,86.09
2024-03-08T11:10:28.368Z,86.94
2024-03-08T11:12:26.606Z,87.18
2024-03-08T11:14:00.505Z,84.38
2024-03-08T11:15:35.075Z,85.71
2024-03-08T11:17:08.292Z,87.37
2024-03-08T11:18:44.295Z,86.49
2024-03-08T11:20:22.063Z,83.66
2024-03-08T11:22:04.315Z,83.66
2024-03-08T11:23:37.762Z,85.74
2024-03-08T11:25:12.133Z,84.90
2024-03-08T11:26:47.907Z,85.56
2024-03-08T11:28:23.681Z,85.79
2024-03-08T11:30:17.100Z,86.57
2024-03-08T11:31:52.991Z,90.33
2024-03-08T11:33:30.040Z,88.85
2024-03-08T11:35:06.827Z,89.20
2024-03-08T11:36:44.787Z,89.31
2024-03-08T11:38:20.396Z,90.38
2024-03-08T11:40:00.569Z,90.19
2024-03-08T11:41:35.288Z,90.64
2024-03-08T11:43:08.769Z,90.37
2024-03-08T11:44:45.625Z,87.67
2024-03-08T11:46:19.780Z,88.66
2024-03-08T11:47:58.743Z,87.67
2024-03-08T11:49:34.498Z,87.39
2024-03-08T11:51:09.322Z,89.07
2024-03-08T11:52:46.484Z,89.47
2024-03-08T11:54:19.758Z,91.09
2024-03-08T11:55:53.946Z,91.17
2024-03-08T11:57:27.631Z,90.76
2024-03-08T11:59:03.395Z,89.74
2024-03-08T12:00:37.029Z,90.57
2024-03-08T12:02:12.213Z,91.50
2024-03-08T12:03:45.639Z,91.20
2024-03-08T12:05:22.580Z,89.56
2024-03-08T12:06:55.523Z,90.01
2024-03-08T12:08:32.277Z,90.34
2024-03-08T12:10:24.140Z,87.80
2024-03-08T12:11:58.395Z,87.95
2024-03-08T12:13:35.127Z,89.36
2024-03-08T12:15:12.530Z,89.81
2024-03-08T12:16:46.186Z,88.17
2024-03-08T12:18:20.123Z,86.92
2024-03-08T12:19:55.915Z,84.75
2024-03-08T12:21:30.676Z,83.88
2024-03-08T12:23:04.472Z,84.98
2024-03-08T12:24:42.411Z,85.01
2024-03-08T12:26:17.141Z,85.42
2024-03-08T12:27:53.481Z,85.66
2024-03-08T12:29:28.816Z,86.03
2024-03-08T12:31:03.460Z,83.93
2024-03-08T12:32:37.060Z,82.92
2024-03-08T12:34:11.373Z,83.88
2024-03-08T12:35:55.940Z,85.43
2024-03-08T12:37:30.747Z,85.42
2024-03-08T12:39:05.038Z,83.90
2024-03-08T12:40:43.299Z,83.49
2024-03-08T12:42:16.882Z,83.60
2024-03-08T12:43:51.213Z,85.67
2024-03-08T12:45:25.255Z,86.32
2024-03-08T12:47:00.432Z,87.57
2024-03-08T12:48:36.736Z,87.35
2024-03-08T12:50:12.000Z,85.92
2024-03-08T12:51:45.225Z,83.79
2024-03-08T12:53:19.235Z,82.25
2024-03-08T12:54:53.265Z,80.60
2024-03-08T12:56:34.532Z,81.17
2024-03-08T12:58:08.705Z,82.28
2024-03-08T12:59:43.922Z,84.06
2024-03-08T13:01:18.826Z,84.50
2024-03-08T13:02:53.285Z,85.16
2024-03-08T13:04:27.009Z,85.17
2024-03-08T13:06:01.246Z,84.58
2024-03-08T13:07:35.021Z,86.02
2024-03-08T13:09:09.036Z,88.21
2024-03-08T13:10:44.675Z,88.22
2024-03-08T13:12:21.222Z,88.70
2024-03-08T13:13:55.639Z,91.86
2024-03-08T13:15:30.802Z,91.75
2024-03-08T13:17:05.342Z,90.84
2024-03-08T13:18:38.662Z,91.31
2024-03-08T13:20:24.845Z,92.04
2024-03-08T13:22:05.772Z,92.09
2024-03-08T13:23:41.660Z,90.50
2024-03-08T13:25:15.199Z,90.78
2024-03-08T13:26:51.596Z,91.21
2024-03-08T13:28:31.107Z,91.44
2024-03-08T13:30:05.837Z,91.61
2024-03-08T13:31:40.920Z,91.17
2024-03-08T13:33:15.321Z,90.65
2024-03-08T13:34:52.060Z,90.77
2024-03-08T13:36:30.436Z,89.83
2024-03-08T13:38:04.576Z,88.71
2024-03-08T13:39:44.889Z,87.85
2024-03-08T13:41:21.568Z,87.15
2024-03-08T13:42:55.610Z,85.63
2024-03-08T13:44:30.281Z,84.13
2024-03-08T13:46:05.941Z,84.38
2024-03-08T13:47:40.532Z,83.84
2024-03-08T13:49:14.784Z,82.14
2024-03-08T13:50:47.812Z,82.31
2024-03-08T13:52:22.018Z,81.41
2024-03-08T13:53:55.402Z,80.90
2024-03-08T13:55:29.338Z,77.53
2024-03-08T13:57:04.800Z,76.61
2024-03-08T13:58:39.244Z,75.50
2024-03-08T14:00:15.481Z,75.75
2024-03-08T14:01:50.134Z,74.27
2024-03-08T14:03:24.839Z,73.46
2024-03-08T14:05:03.297Z,74.68
2024-03-08T14:08:13.151Z,78.02
2024-03-08T14:09:45.930Z,77.04
2024-03-08T14:11:20.897Z,77.69
2024-03-08T14:12:53.951Z,78.39
2024-03-08T14:14:27.665Z,80.15
2024-03-08T14:16:01.982Z,80.44
2024-03-08T14:17:37.199Z,81.48
2024-03-08T14:19:11.059Z,81.48
2024-03-08T14:20:45.426Z,81.30
2024-03-08T14:22:18.733Z,81.21
2024-03-08T14:23:53.683Z,80.23
2024-03-08T14:25:27.353Z,79.10
2024-03-08T14:27:01.553Z,80.37
2024-03-08T14:28:34.685Z,80.32
2024-03-08T14:30:11.942Z,80.36
2024-03-08T14:31:47.199Z,80.50
2024-03-08T14:33:20.296Z,79.97
2024-03-08T14:34:56.259Z,80.42
2024-03-08T14:36:29.717Z,80.59
2024-03-08T14:38:03.941Z,80.47
2024-03-08T14:39:36.955Z,80.24
2024-03-08T14:41:11.017Z,78.57
2024-03-08T14:42:44.114Z,78.33
2024-03-08T14:44:19.848Z,78.67
2024-03-08T14:45:53.881Z,79.03
2024-03-08T14:47:28.210Z,78.82
2024-03-08T14:49:02.522Z,79.54
2024-03-08T14:50:38.027Z,80.49
2024-03-08T14:52:28.303Z,80.91
2024-03-08T14:54:03.524Z,81.63
2024-03-08T14:55:36.778Z,82.11
2024-03-08T14:57:10.648Z,82.66
2024-03-08T14:58:44.971Z,82.20
2024-03-08T15:00:28.415Z,81.68
2024-03-08T15:02:02.882Z,82.09
2024-03-08T15:03:39.600Z,81.04
2024-03-08T15:05:12.829Z,79.77
2024-03-08T15:06:50.759Z,80.04
2024-03-08T15:08:26.707Z,80.33
2024-03-08T15:10:00.777Z,80.28
2024-03-08T15:11:35.766Z,79.17
2024-03-08T15:13:16.500Z,78.67
2024-03-08T15:14:52.348Z,78.09
2024-03-08T15:16:26.318Z,77.45
2024-03-08T15:18:00.419Z,77.80
2024-03-08T15:19:36.153Z,78.00
2024-03-08T15:21:10.235Z,77.91
2024-03-08T15:22:44.577Z,79.04
2024-03-08T15:24:22.200Z,79.17
2024-03-08T15:25:56.056Z,79.00
2024-03-08T15:27:30.372Z,79.99
2024-03-08T15:29:03.404Z,81.49
2024-03-08T15:30:37.413Z,82.43
2024-03-08T15:32:15.895Z,82.60
2024-03-08T15:33:52.969Z,83.02
2024-03-08T15:35:27.596Z,83.34
2024-03-08T15:37:04.317Z,83.11
2024-03-08T15:38:38.267Z,80.43
2024-03-08T15:40:21.975Z,80.90
2024-03-08T15:41:56.375Z,81.23
2024-03-08T15:43:30.618Z,81.14
2024-03-08T15:45:05.264Z,81.46
2024-03-08T15:46:40.838Z,79.81
2024-03-08T15:48:13.973Z,79.37
2024-03-08T15:49:48.129Z,79.13
2024-03-08T15:51:24.084Z,79.96
2024-03-08T15:52:57.123Z,80.04
2024-03-08T15:54:31.419Z,80.00
2024-03-08T15:56:07.049Z,79.62
2024-03-08T15:57:41.778Z,78.56
2024-03-08T15:59:15.424Z,79.04
2024-03-08T16:00:49.926Z,79.44
2024-03-08T16:02:24.739Z,80.27
2024-03-08T16:03:59.491Z,80.94
2024-03-08T16:05:32.496Z,81.57
2024-03-08T16:07:07.952Z,82.84
2024-03-08T16:08:41.120Z,82.33
2024-03-08T16:10:15.720Z,82.81
2024-03-08T16:11:49.744Z,84.05
2024-03-08T16:13:24.836Z,85.31
2024-03-08T16:14:58.255Z,87.01
2024-03-08T16:16:33.684Z,87.98
2024-03-08T16:18:08.036Z,89.37
2024-03-08T16:19:42.735Z,90.29
2024-03-08T16:21:16.556Z,90.70
2024-03-08T16:22:54.036Z,91.65
2024-03-08T16:24:28.240Z,91.94
2024-03-08T16:26:01.404Z,93.29
2024-03-08T16:27:35.526Z,93.44
2024-03-08T16:29:09.077Z,91.94
2024-03-08T16:30:48.981Z,92.21
2024-03-08T16:32:22.089Z,92.06
2024-03-08T16:33:56.106Z,91.53
2024-03-08T16:35:29.542Z,92.42
2024-03-08T16:37:04.582Z,91.54
2024-03-08T16:38:40.067Z,92.14
2024-03-08T16:40:16.643Z,92.05
2024-03-08T16:41:52.178Z,93.51
2024-03-08T16:43:25.254Z,93.65
2024-03-08T16:44:59.829Z,94.29
2024-03-08T16:46:35.929Z,94.22
2024-03-08T16:48:12.373Z,94.71
2024-03-08T16:49:46.626Z,95.60
2024-03-08T16:51:20.782Z,96.08
2024-03-08T16:52:56.815Z,97.55
2024-03-08T16:54:43.478Z,97.66
2024-03-08T16:56:25.830Z,99.40
2024-03-08T16:58:00.008Z,100.00
2024-03-08T16:59:33.840Z,100.00
2024-03-08T17:01:08.366Z,100.00
2024-03-08T17:02:41.623Z,100.00
2024-03-08T17:04:19.105Z,100.00
2024-03-08T17:05:55.623Z,100.00
2024-03-08T17:07:33.413Z,100.00
2024-03-08T17:09:12.996Z,100.00
2024-03-08T17:10:47.716Z,100.00
2024-03-08T17:12:21.789Z,100.00
2024-03-08T17:13:55.352Z,100.00
2024-03-08T17:15:30.237Z,100.00
2024-03-08T17:17:06.150Z,100.00
2024-03-08T17:18:38.990Z,100.00
2024-03-08T17:20:16.671Z,100.00
2024-03-08T17:21:50.556Z,100.00
2024-03-08T17:23:24.641Z,100.00
2024-03-08T17:24:57.721Z,100.00
2024-03-08T17:26:33.700Z,100.00
2024-03-08T17:28:09.922Z,100.00
2024-03-08T17:29:45.637Z,100.00
2024-03-08T17:31:22.519Z,100.00
2024-03-08T17:33:00.847Z,100.00
2024-03-08T17:34:36.718Z,100.00
2024-03-08T17:36:12.372Z,100.00
2024-03-08T17:37:48.218Z,100.00
2024-03-08T17:39:23.252Z,100.00
2024-03-08T17:40:56.402Z,100.00
2024-03-08T17:42:32.888Z,100.00
2024-03-08T17:44:05.954Z,100.00
2024-03-08T17:45:42.067Z,100.00
2024-03-08T17:47:16.656Z,100.00
2024-03-08T17:48:50.652Z,100.00
2024-03-08T17:50:25.317Z,100.00
2024-03-08T17:52:03.925Z,100.00
2024-03-08T17:53:37.038Z,100.00
2024-03-08T17:55:14.922Z,100.00
2024-03-08T17:56:47.902Z,100.00
2024-03-08T17:58:23.993Z,100.00
2024-03-08T17:59:57.048Z,100.00
2024-03-08T18:01:33.651Z,100.00
2024-03-08T18:03:09.946Z,100.00
2024-03-08T18:04:46.742Z,100.00
2024-03-08T18:06:19.923Z,100.00
2024-03-08T18:07:54.564Z,100.00
2024-03-08T18:09:31.454Z,100.00
2024-03-08T18:11:05.938Z,100.00
2024-03-08T18:12:39.139Z,100.00
2024-03-08T18:14:15.998Z,100.00
2024-03-08T18:15:49.387Z,100.00
2024-03-08T18:17:24.295Z,100.00
2024-03-08T18:18:57.338Z,100.00
2024-03-08T18:20:33.794Z,100.00
2024-03-08T18:22:09.199Z,100.00
2024-03-08T18:23:45.021Z,100.00
2024-03-08T18:25:21.152Z,100.00
2024-03-08T18:26:55.369Z,100.00
2024-03-08T18:28:29.502Z,100.00
2024-03-08T18:30:06.858Z,100.00
2024-03-08T18:31:39.990Z,100.00
2024-03-08T18:33:15.854Z,100.00
2024-03-08T18:34:51.120Z,100.00
2024-03-08T18:36:25.690Z,100.00
2024-03-08T18:37:59.105Z,100.00
2024-03-08T18:39:33.397Z,100.00
2024-03-08T18:41:06.571Z,100.00
2024-03-08T18:42:41.881Z,100.00
2024-03-08T18:44:15.318Z,100.00
2024-03-08T18:45:51.366Z,100.00
2024-03-08T18:47:24.346Z,100.00
2024-03-08T18:48:59.206Z,100.00
2024-03-08T18:50:33.786Z,100.00
2024-03-08T18:52:07.907Z,100.00
2024-03-08T18:53:42.925Z,100.00
2024-03-08T18:55:18.244Z,100.00
2024-03-08T18:56:52.861Z,100.00
2024-03-08T18:58:39.238Z,100.00
2024-03-08T19:00:22.713Z,100.00
2024-03-08T19:02:00.894Z,100.00
2024-03-08T19:03:35.816Z,100.00
2024-03-08T19:05:16.642Z,100.00
2024-03-08T19:06:52.649Z,100.00
2024-03-08T19:08:27.565Z,100.00
2024-03-08T19:10:00.931Z,100.00
2024-03-08T19:11:35.233Z,100.00
2024-03-08T19:13:10.455Z,100.00
2024-03-08T19:14:44.655Z,100.00
2024-03-08T19:16:19.023Z,100.00
2024-03-08T19:17:56.431Z,100.00
2024-03-08T19:19:29.964Z,100.00
2024-03-08T19:21:04.057Z,100.00
2024-03-08T19:22:38.905Z,100.00
2024-03-08T19:24:13.217Z,100.00
2024-03-08T19:25:46.847Z,100.00
2024-03-08T19:27:20.962Z,100.00
2024-03-08T19:28:55.251Z,100.00
2024-03-08T19:30:30.047Z,100.00
2024-03-08T19:32:04.804Z,100.00
2024-03-08T19:33:41.637Z,100.00
2024-03-08T19:35:19.319Z,100.00
2024-03-08T19:36:54.023Z,100.00
2024-03-08T19:38:32.492Z,100.00
2024-03-08T19:40:14.636Z,100.00
2024-03-08T19:41:48.618Z,100.00
2024-03-08T19:43:22.925Z,100.00
2024-03-08T19:44:56.702Z,100.00
2024-03-08T19:46:35.843Z,100.00
2024-03-08T19:48:17.271Z,100.00
2024-03-08T19:49:53.099Z,100.00
2024-03-08T19:51:27.673Z,100.00
2024-03-08T19:53:05.436Z,100.00
2024-03-08T19:54:40.545Z,100.00
2024-03-08T19:56:13.732Z,100.00
2024-03-08T19:57:50.814Z,100.00
2024-03-08T19:59:25.671Z,100.00
2024-03-08T20:01:00.127Z,100.00
2024-03-08T20:04:06.339Z,100.00
2024-03-08T20:05:44.056Z,100.00
2024-03-08T20:07:18.268Z,100.00
2024-03-08T20:08:52.660Z,100.00